EVA106 RCTP-RJFF
Flight info
| Callsign | EVA106 |
|---|---|
| Flight time | 1h 56m |
| Altitude | 37000 |
| Route | MOLKA1A MOLKA M750 MOMPA Y25 GOKYO/N0469F360 Y25 ISKUP |
| Aircraft | B77W/H-SDE1E2E3FGHIJ1J3J4J5LM1P2RWXYZ/LB1D1 |
Departure
| Time | 2026-05-08 11:13 |
|---|---|
| Airport | Taiwan Taoyuan International Airport (RCTP) |
Arrival
| Time | 2026-05-08 13:10 |
|---|---|
| Airport | Fukuoka Airport (RJFF) |
| Time | Latitude | Longitude | Altitude | Speed | Heading |
|---|---|---|---|---|---|
| 2026-05-08 10:58 | 25.07463 | 121.23267 | 106 ft | 0 kts | 319° |
| 2026-05-08 11:00 | 25.07449 | 121.23280 | 106 ft | 4 kts | 319° |
| 2026-05-08 11:00 | 25.07429 | 121.23299 | 105 ft | 4 kts | 319° |
| 2026-05-08 11:01 | 25.07408 | 121.23318 | 105 ft | 4 kts | 319° |
| 2026-05-08 11:01 | 25.07390 | 121.23335 | 104 ft | 2 kts | 319° |
| 2026-05-08 11:01 | 25.07381 | 121.23344 | 104 ft | 4 kts | 273° |
| 2026-05-08 11:01 | 25.07385 | 121.23358 | 106 ft | 4 kts | 232° |
| 2026-05-08 11:02 | 25.07401 | 121.23380 | 105 ft | 4 kts | 229° |
| 2026-05-08 11:02 | 25.07416 | 121.23399 | 106 ft | 0 kts | 229° |
| 2026-05-08 11:07 | 25.07409 | 121.23389 | 107 ft | 4 kts | 229° |
| 2026-05-08 11:07 | 25.07374 | 121.23344 | 108 ft | 11 kts | 229° |
| 2026-05-08 11:08 | 25.07312 | 121.23265 | 108 ft | 15 kts | 230° |
| 2026-05-08 11:08 | 25.07238 | 121.23187 | 107 ft | 15 kts | 198° |
| 2026-05-08 11:08 | 25.07147 | 121.23236 | 107 ft | 15 kts | 143° |
| 2026-05-08 11:08 | 25.07067 | 121.23272 | 105 ft | 11 kts | 199° |
| 2026-05-08 11:09 | 25.07009 | 121.23208 | 106 ft | 12 kts | 229° |
| 2026-05-08 11:09 | 25.06950 | 121.23134 | 106 ft | 13 kts | 229° |
| 2026-05-08 11:09 | 25.06889 | 121.23055 | 107 ft | 14 kts | 229° |
| 2026-05-08 11:09 | 25.06823 | 121.22973 | 106 ft | 15 kts | 229° |
| 2026-05-08 11:10 | 25.06754 | 121.22884 | 105 ft | 16 kts | 229° |
| 2026-05-08 11:10 | 25.06681 | 121.22791 | 106 ft | 16 kts | 229° |
| 2026-05-08 11:10 | 25.06605 | 121.22695 | 106 ft | 17 kts | 229° |
| 2026-05-08 11:10 | 25.06527 | 121.22597 | 105 ft | 17 kts | 229° |
| 2026-05-08 11:11 | 25.06450 | 121.22499 | 106 ft | 17 kts | 229° |
| 2026-05-08 11:11 | 25.06372 | 121.22400 | 107 ft | 17 kts | 229° |
| 2026-05-08 11:11 | 25.06295 | 121.22302 | 107 ft | 16 kts | 229° |
| 2026-05-08 11:11 | 25.06215 | 121.22253 | 105 ft | 11 kts | 167° |
| 2026-05-08 11:12 | 25.06185 | 121.22273 | 105 ft | 1 kts | 142° |
| 2026-05-08 11:12 | 25.06170 | 121.22286 | 104 ft | 4 kts | 141° |
| 2026-05-08 11:12 | 25.06135 | 121.22319 | 104 ft | 9 kts | 139° |
| 2026-05-08 11:12 | 25.06116 | 121.22388 | 102 ft | 11 kts | 70° |
| 2026-05-08 11:13 | 25.06164 | 121.22457 | 102 ft | 12 kts | 49° |
| 2026-05-08 11:13 | 25.06238 | 121.22550 | 103 ft | 40 kts | 49° |
| 2026-05-08 11:13 | 25.06708 | 121.23138 | 100 ft | 164 kts | 49° |
| 2026-05-08 11:13 | 25.07638 | 121.24261 | 1049 ft | 212 kts | 46° |
| 2026-05-08 11:14 | 25.08622 | 121.25495 | 2736 ft | 224 kts | 50° |
| 2026-05-08 11:14 | 25.09653 | 121.26880 | 3286 ft | 250 kts | 51° |
| 2026-05-08 11:14 | 25.10795 | 121.28411 | 4221 ft | 257 kts | 50° |
| 2026-05-08 11:14 | 25.11967 | 121.29942 | 5147 ft | 265 kts | 48° |
| 2026-05-08 11:15 | 25.13247 | 121.31442 | 5961 ft | 278 kts | 46° |
| 2026-05-08 11:15 | 25.14632 | 121.33018 | 6752 ft | 292 kts | 45° |
| 2026-05-08 11:15 | 25.16062 | 121.34642 | 7712 ft | 297 kts | 45° |
| 2026-05-08 11:15 | 25.17509 | 121.36291 | 8757 ft | 301 kts | 45° |
| 2026-05-08 11:16 | 25.18970 | 121.37963 | 9796 ft | 305 kts | 45° |
| 2026-05-08 11:16 | 25.20482 | 121.39696 | 10654 ft | 316 kts | 44° |
| 2026-05-08 11:16 | 25.22048 | 121.41493 | 11001 ft | 344 kts | 44° |
| 2026-05-08 11:16 | 25.23780 | 121.43484 | 11237 ft | 375 kts | 44° |
| 2026-05-08 11:17 | 25.25620 | 121.45605 | 11900 ft | 388 kts | 44° |
| 2026-05-08 11:17 | 25.27510 | 121.47786 | 12762 ft | 396 kts | 44° |
| 2026-05-08 11:17 | 25.29251 | 121.50145 | 13529 ft | 402 kts | 59° |
| 2026-05-08 11:17 | 25.30154 | 121.53102 | 14285 ft | 413 kts | 81° |
| 2026-05-08 11:18 | 25.30120 | 121.56275 | 15098 ft | 415 kts | 100° |
| 2026-05-08 11:18 | 25.29789 | 121.59440 | 15621 ft | 419 kts | 88° |
| 2026-05-08 11:18 | 25.30265 | 121.62657 | 16259 ft | 428 kts | 75° |
| 2026-05-08 11:18 | 25.31025 | 121.65856 | 17102 ft | 432 kts | 75° |
| 2026-05-08 11:19 | 25.31543 | 121.68032 | 17701 ft | 435 kts | 75° |
| 2026-05-08 11:19 | 25.32517 | 121.72360 | 18721 ft | 443 kts | 76° |
| 2026-05-08 11:19 | 25.33218 | 121.75707 | 19418 ft | 448 kts | 77° |
| 2026-05-08 11:19 | 25.33675 | 121.77980 | 19912 ft | 451 kts | 77° |
| 2026-05-08 11:20 | 25.34333 | 121.81331 | 20618 ft | 455 kts | 78° |
| 2026-05-08 11:20 | 25.34994 | 121.84749 | 21330 ft | 459 kts | 78° |
| 2026-05-08 11:20 | 25.35661 | 121.88219 | 22022 ft | 464 kts | 78° |
| 2026-05-08 11:20 | 25.36335 | 121.91727 | 22719 ft | 469 kts | 78° |
| 2026-05-08 11:21 | 25.37021 | 121.95292 | 23404 ft | 474 kts | 78° |
| 2026-05-08 11:21 | 25.37711 | 121.98875 | 23987 ft | 479 kts | 78° |
| 2026-05-08 11:21 | 25.38409 | 122.02494 | 24503 ft | 484 kts | 78° |
| 2026-05-08 11:21 | 25.39110 | 122.06140 | 25025 ft | 488 kts | 77° |
| 2026-05-08 11:22 | 25.39822 | 122.09844 | 25538 ft | 492 kts | 77° |
| 2026-05-08 11:22 | 25.40535 | 122.13558 | 26046 ft | 497 kts | 77° |
| 2026-05-08 11:22 | 25.41256 | 122.17317 | 26558 ft | 501 kts | 77° |
| 2026-05-08 11:22 | 25.41815 | 122.20232 | 26942 ft | 504 kts | 77° |
| 2026-05-08 11:23 | 25.42720 | 122.23976 | 27417 ft | 508 kts | 71° |
| 2026-05-08 11:23 | 25.43898 | 122.27642 | 27919 ft | 511 kts | 68° |
| 2026-05-08 11:23 | 25.45215 | 122.31311 | 28398 ft | 515 kts | 66° |
| 2026-05-08 11:23 | 25.46564 | 122.34989 | 28955 ft | 519 kts | 66° |
| 2026-05-08 11:24 | 25.47907 | 122.38720 | 29435 ft | 523 kts | 67° |
| 2026-05-08 11:24 | 25.49197 | 122.42416 | 29835 ft | 528 kts | 67° |
| 2026-05-08 11:24 | 25.50518 | 122.46299 | 30250 ft | 532 kts | 68° |
| 2026-05-08 11:24 | 25.51788 | 122.50097 | 30608 ft | 535 kts | 68° |
| 2026-05-08 11:25 | 25.53084 | 122.54000 | 31024 ft | 536 kts | 68° |
| 2026-05-08 11:25 | 25.54364 | 122.57860 | 31516 ft | 534 kts | 68° |
| 2026-05-08 11:25 | 25.55643 | 122.61712 | 32063 ft | 532 kts | 67° |
| 2026-05-08 11:25 | 25.56926 | 122.65570 | 32572 ft | 531 kts | 67° |
| 2026-05-08 11:26 | 25.58198 | 122.69391 | 33058 ft | 530 kts | 67° |
| 2026-05-08 11:26 | 25.59471 | 122.73215 | 33537 ft | 529 kts | 67° |
| 2026-05-08 11:26 | 25.60747 | 122.77053 | 34021 ft | 528 kts | 67° |
| 2026-05-08 11:26 | 25.62010 | 122.80858 | 34446 ft | 527 kts | 66° |
| 2026-05-08 11:27 | 25.63261 | 122.84628 | 34844 ft | 526 kts | 66° |
| 2026-05-08 11:27 | 25.64533 | 122.88458 | 35263 ft | 525 kts | 66° |
| 2026-05-08 11:27 | 25.65806 | 122.92252 | 35661 ft | 524 kts | 65° |
| 2026-05-08 11:27 | 25.67084 | 122.96033 | 36048 ft | 524 kts | 65° |
| 2026-05-08 11:28 | 25.68365 | 122.99817 | 36424 ft | 523 kts | 65° |
| 2026-05-08 11:28 | 25.69642 | 123.03596 | 36816 ft | 522 kts | 65° |
| 2026-05-08 11:28 | 25.70915 | 123.07374 | 37117 ft | 523 kts | 65° |
| 2026-05-08 11:29 | 25.73460 | 123.14943 | 37078 ft | 522 kts | 65° |
| 2026-05-08 11:29 | 25.75982 | 123.22478 | 37073 ft | 520 kts | 65° |
| 2026-05-08 11:30 | 25.78495 | 123.29994 | 37072 ft | 520 kts | 65° |
| 2026-05-08 11:30 | 25.81014 | 123.37534 | 37078 ft | 523 kts | 65° |
| 2026-05-08 11:31 | 25.83535 | 123.45106 | 37074 ft | 522 kts | 65° |
| 2026-05-08 11:31 | 25.86046 | 123.52659 | 37073 ft | 522 kts | 65° |
| 2026-05-08 11:31 | 25.87511 | 123.56230 | 37055 ft | 510 kts | 51° |
| 2026-05-08 11:32 | 25.89734 | 123.59279 | 37085 ft | 496 kts | 37° |
| 2026-05-08 11:32 | 25.92434 | 123.61602 | 37073 ft | 486 kts | 22° |
| 2026-05-08 11:32 | 25.95456 | 123.63184 | 37109 ft | 480 kts | 17° |
| 2026-05-08 11:33 | 26.01617 | 123.66240 | 37088 ft | 488 kts | 17° |
| 2026-05-08 11:33 | 26.07782 | 123.69419 | 37045 ft | 487 kts | 17° |
| 2026-05-08 11:34 | 26.13913 | 123.72634 | 37080 ft | 488 kts | 17° |
| 2026-05-08 11:34 | 26.20058 | 123.75859 | 37090 ft | 489 kts | 17° |
| 2026-05-08 11:35 | 26.26215 | 123.79090 | 37091 ft | 489 kts | 17° |
| 2026-05-08 11:35 | 26.32379 | 123.82327 | 37091 ft | 490 kts | 17° |
| 2026-05-08 11:36 | 26.37882 | 123.85219 | 37089 ft | 490 kts | 17° |
| 2026-05-08 11:36 | 26.44055 | 123.88467 | 37095 ft | 492 kts | 17° |
| 2026-05-08 11:37 | 26.50250 | 123.91732 | 37092 ft | 493 kts | 17° |
| 2026-05-08 11:37 | 26.56404 | 123.94981 | 37098 ft | 492 kts | 17° |
| 2026-05-08 11:38 | 26.62584 | 123.98245 | 37103 ft | 491 kts | 17° |
| 2026-05-08 11:38 | 26.68249 | 124.02656 | 37103 ft | 517 kts | 41° |
| 2026-05-08 11:39 | 26.72809 | 124.08937 | 37110 ft | 521 kts | 45° |
| 2026-05-08 11:39 | 26.77327 | 124.15281 | 37110 ft | 521 kts | 44° |
| 2026-05-08 11:40 | 26.81939 | 124.21546 | 37109 ft | 521 kts | 43° |
| 2026-05-08 11:40 | 26.86585 | 124.27775 | 37109 ft | 521 kts | 43° |
| 2026-05-08 11:41 | 26.91229 | 124.34022 | 37109 ft | 522 kts | 43° |
| 2026-05-08 11:41 | 26.95874 | 124.40294 | 37117 ft | 523 kts | 43° |
| 2026-05-08 11:42 | 27.00524 | 124.46570 | 37123 ft | 523 kts | 43° |
| 2026-05-08 11:42 | 27.05182 | 124.52844 | 37114 ft | 524 kts | 43° |
| 2026-05-08 11:43 | 27.09837 | 124.59123 | 37111 ft | 524 kts | 43° |
| 2026-05-08 11:43 | 27.14503 | 124.65430 | 37114 ft | 525 kts | 43° |
| 2026-05-08 11:44 | 27.19163 | 124.71741 | 37112 ft | 525 kts | 43° |
| 2026-05-08 11:44 | 27.23825 | 124.78063 | 37118 ft | 525 kts | 43° |
| 2026-05-08 11:45 | 27.28476 | 124.84379 | 37118 ft | 525 kts | 43° |
| 2026-05-08 11:45 | 27.33125 | 124.90702 | 37123 ft | 525 kts | 43° |
| 2026-05-08 11:46 | 27.37793 | 124.97060 | 37125 ft | 526 kts | 43° |
| 2026-05-08 11:46 | 27.42455 | 125.03398 | 37128 ft | 526 kts | 43° |
| 2026-05-08 11:47 | 27.47148 | 125.09721 | 37127 ft | 526 kts | 43° |
| 2026-05-08 11:47 | 27.51838 | 125.16041 | 37127 ft | 527 kts | 43° |
| 2026-05-08 11:48 | 27.56537 | 125.22392 | 37127 ft | 527 kts | 43° |
| 2026-05-08 11:48 | 27.61218 | 125.28735 | 37119 ft | 529 kts | 43° |
| 2026-05-08 11:49 | 27.65946 | 125.35155 | 37140 ft | 529 kts | 43° |
| 2026-05-08 11:49 | 27.70624 | 125.41514 | 37121 ft | 529 kts | 43° |
| 2026-05-08 11:50 | 27.75327 | 125.47918 | 37129 ft | 528 kts | 43° |
| 2026-05-08 11:50 | 27.80042 | 125.54345 | 37125 ft | 527 kts | 43° |
| 2026-05-08 11:51 | 27.84713 | 125.60724 | 37122 ft | 527 kts | 43° |
| 2026-05-08 11:51 | 27.89353 | 125.67067 | 37129 ft | 527 kts | 43° |
| 2026-05-08 11:52 | 27.94028 | 125.73468 | 37132 ft | 527 kts | 43° |
| 2026-05-08 11:52 | 27.98692 | 125.79864 | 37120 ft | 528 kts | 43° |
| 2026-05-08 11:53 | 28.03370 | 125.86289 | 37132 ft | 529 kts | 44° |
| 2026-05-08 11:53 | 28.08049 | 125.92724 | 37130 ft | 529 kts | 44° |
| 2026-05-08 11:54 | 28.12703 | 125.99135 | 37131 ft | 530 kts | 44° |
| 2026-05-08 11:54 | 28.17387 | 126.05599 | 37129 ft | 531 kts | 44° |
| 2026-05-08 11:55 | 28.22072 | 126.12073 | 37133 ft | 531 kts | 44° |
| 2026-05-08 11:55 | 28.26757 | 126.18556 | 37133 ft | 531 kts | 44° |
| 2026-05-08 11:56 | 28.31446 | 126.25057 | 37133 ft | 532 kts | 44° |
| 2026-05-08 11:56 | 28.35716 | 126.30983 | 37129 ft | 532 kts | 44° |
| 2026-05-08 11:57 | 28.40396 | 126.37491 | 37127 ft | 532 kts | 44° |
| 2026-05-08 11:57 | 28.45078 | 126.44009 | 37132 ft | 532 kts | 44° |
| 2026-05-08 11:58 | 28.49725 | 126.50489 | 37140 ft | 532 kts | 44° |
| 2026-05-08 11:58 | 28.54399 | 126.57016 | 37128 ft | 533 kts | 44° |
| 2026-05-08 11:59 | 28.60903 | 126.66117 | 37137 ft | 533 kts | 44° |
| 2026-05-08 11:59 | 28.65574 | 126.72665 | 37133 ft | 533 kts | 44° |
| 2026-05-08 12:00 | 28.70251 | 126.79232 | 37136 ft | 534 kts | 44° |
| 2026-05-08 12:00 | 28.74913 | 126.85788 | 37135 ft | 534 kts | 44° |
| 2026-05-08 12:01 | 28.79590 | 126.92376 | 37135 ft | 534 kts | 44° |
| 2026-05-08 12:01 | 28.84262 | 126.98967 | 37131 ft | 534 kts | 44° |
| 2026-05-08 12:02 | 28.88915 | 127.05541 | 37138 ft | 534 kts | 44° |
| 2026-05-08 12:02 | 28.93596 | 127.12165 | 37140 ft | 534 kts | 44° |
| 2026-05-08 12:03 | 28.98259 | 127.18773 | 37142 ft | 535 kts | 45° |
| 2026-05-08 12:03 | 29.02173 | 127.24330 | 37132 ft | 535 kts | 45° |
| 2026-05-08 12:04 | 29.06796 | 127.30903 | 37126 ft | 536 kts | 45° |
| 2026-05-08 12:04 | 29.11471 | 127.37561 | 37133 ft | 536 kts | 45° |
| 2026-05-08 12:05 | 29.16129 | 127.44204 | 37132 ft | 536 kts | 45° |
| 2026-05-08 12:05 | 29.20800 | 127.50875 | 37135 ft | 536 kts | 45° |
| 2026-05-08 12:06 | 29.25458 | 127.57540 | 37131 ft | 537 kts | 45° |
| 2026-05-08 12:06 | 29.30122 | 127.64224 | 37133 ft | 537 kts | 45° |
| 2026-05-08 12:07 | 29.34782 | 127.70914 | 37134 ft | 537 kts | 45° |
| 2026-05-08 12:07 | 29.39437 | 127.77608 | 37144 ft | 538 kts | 45° |
| 2026-05-08 12:08 | 29.44109 | 127.84337 | 37129 ft | 538 kts | 45° |
| 2026-05-08 12:08 | 29.48769 | 127.91061 | 37126 ft | 539 kts | 45° |
| 2026-05-08 12:09 | 29.53437 | 127.97805 | 37132 ft | 539 kts | 45° |
| 2026-05-08 12:09 | 29.58107 | 128.04552 | 37136 ft | 540 kts | 45° |
| 2026-05-08 12:10 | 29.62779 | 128.11308 | 37139 ft | 540 kts | 45° |
| 2026-05-08 12:10 | 29.67417 | 128.18030 | 37144 ft | 541 kts | 45° |
| 2026-05-08 12:11 | 29.72086 | 128.24811 | 37137 ft | 541 kts | 45° |
| 2026-05-08 12:11 | 29.76760 | 128.31610 | 37134 ft | 541 kts | 46° |
| 2026-05-08 12:12 | 29.81431 | 128.38416 | 37135 ft | 542 kts | 46° |
| 2026-05-08 12:12 | 29.86093 | 128.45220 | 37130 ft | 542 kts | 46° |
| 2026-05-08 12:13 | 29.90762 | 128.52047 | 37135 ft | 542 kts | 46° |
| 2026-05-08 12:13 | 29.95428 | 128.58879 | 37132 ft | 542 kts | 46° |
| 2026-05-08 12:14 | 30.00001 | 128.65589 | 37128 ft | 542 kts | 46° |
| 2026-05-08 12:14 | 30.04245 | 128.71824 | 37125 ft | 542 kts | 46° |
| 2026-05-08 12:15 | 30.08877 | 128.78642 | 37122 ft | 542 kts | 46° |
| 2026-05-08 12:15 | 30.13540 | 128.85517 | 37129 ft | 542 kts | 46° |
| 2026-05-08 12:16 | 30.17668 | 128.91613 | 37115 ft | 542 kts | 46° |
| 2026-05-08 12:16 | 30.22300 | 128.98463 | 37124 ft | 542 kts | 46° |
| 2026-05-08 12:17 | 30.26951 | 129.05350 | 37117 ft | 542 kts | 46° |
| 2026-05-08 12:17 | 30.31540 | 129.12155 | 37119 ft | 543 kts | 46° |
| 2026-05-08 12:18 | 30.36180 | 129.19052 | 37117 ft | 544 kts | 46° |
| 2026-05-08 12:18 | 30.40805 | 129.25938 | 37117 ft | 544 kts | 46° |
| 2026-05-08 12:19 | 30.45430 | 129.32836 | 37116 ft | 544 kts | 46° |
| 2026-05-08 12:19 | 30.50115 | 129.39836 | 37111 ft | 544 kts | 46° |
| 2026-05-08 12:20 | 30.54751 | 129.46776 | 37112 ft | 544 kts | 46° |
| 2026-05-08 12:20 | 30.59387 | 129.53726 | 37101 ft | 544 kts | 46° |
| 2026-05-08 12:21 | 30.64018 | 129.60683 | 37102 ft | 544 kts | 46° |
| 2026-05-08 12:21 | 30.68596 | 129.67571 | 37098 ft | 544 kts | 46° |
| 2026-05-08 12:22 | 30.73233 | 129.74561 | 37094 ft | 544 kts | 47° |
| 2026-05-08 12:22 | 30.77660 | 129.81247 | 37094 ft | 544 kts | 47° |
| 2026-05-08 12:23 | 30.82480 | 129.87956 | 37077 ft | 530 kts | 32° |
| 2026-05-08 12:23 | 30.85517 | 129.90345 | 37099 ft | 513 kts | 18° |
| 2026-05-08 12:23 | 30.88731 | 129.91903 | 37098 ft | 503 kts | 7° |
| 2026-05-08 12:24 | 30.92113 | 129.92672 | 37090 ft | 487 kts | 354° |
| 2026-05-08 12:24 | 30.95503 | 129.92964 | 37109 ft | 491 kts | 354° |
| 2026-05-08 12:24 | 31.02345 | 129.93582 | 37101 ft | 496 kts | 355° |
| 2026-05-08 12:25 | 31.09211 | 129.94313 | 37088 ft | 492 kts | 355° |
| 2026-05-08 12:25 | 31.15983 | 129.95074 | 37085 ft | 487 kts | 355° |
| 2026-05-08 12:26 | 31.22731 | 129.95818 | 37097 ft | 487 kts | 355° |
| 2026-05-08 12:26 | 31.29485 | 129.96561 | 37095 ft | 487 kts | 355° |
| 2026-05-08 12:27 | 31.36236 | 129.97141 | 37095 ft | 486 kts | 353° |
| 2026-05-08 12:27 | 31.42966 | 129.97630 | 37105 ft | 487 kts | 353° |
| 2026-05-08 12:28 | 31.49758 | 129.98141 | 37103 ft | 488 kts | 353° |
| 2026-05-08 12:28 | 31.56535 | 129.98673 | 37101 ft | 489 kts | 353° |
| 2026-05-08 12:29 | 31.62273 | 129.99130 | 37099 ft | 489 kts | 353° |
| 2026-05-08 12:29 | 31.69045 | 129.99668 | 37095 ft | 489 kts | 353° |
| 2026-05-08 12:30 | 31.75854 | 130.00209 | 37101 ft | 490 kts | 354° |
| 2026-05-08 12:30 | 31.82599 | 130.00745 | 37099 ft | 490 kts | 353° |
| 2026-05-08 12:31 | 31.89455 | 130.01291 | 37101 ft | 490 kts | 354° |
| 2026-05-08 12:31 | 31.96252 | 130.01833 | 37102 ft | 490 kts | 354° |
| 2026-05-08 12:32 | 32.03063 | 130.02376 | 37104 ft | 490 kts | 354° |
| 2026-05-08 12:32 | 32.09868 | 130.02921 | 37091 ft | 491 kts | 354° |
| 2026-05-08 12:33 | 32.16509 | 130.03453 | 37102 ft | 490 kts | 354° |
| 2026-05-08 12:33 | 32.23318 | 130.04000 | 37106 ft | 490 kts | 354° |
| 2026-05-08 12:34 | 32.30087 | 130.04548 | 36637 ft | 485 kts | 354° |
| 2026-05-08 12:34 | 32.33440 | 130.04820 | 36104 ft | 482 kts | 354° |
| 2026-05-08 12:34 | 32.36788 | 130.05089 | 35551 ft | 480 kts | 354° |
| 2026-05-08 12:35 | 32.40114 | 130.05355 | 34999 ft | 479 kts | 354° |
| 2026-05-08 12:35 | 32.43431 | 130.05621 | 34470 ft | 478 kts | 354° |
| 2026-05-08 12:35 | 32.46751 | 130.05889 | 33941 ft | 476 kts | 354° |
| 2026-05-08 12:35 | 32.50047 | 130.06156 | 33410 ft | 473 kts | 354° |
| 2026-05-08 12:36 | 32.53318 | 130.06422 | 32982 ft | 469 kts | 354° |
| 2026-05-08 12:36 | 32.56549 | 130.06683 | 32547 ft | 463 kts | 353° |
| 2026-05-08 12:36 | 32.59732 | 130.06719 | 32083 ft | 451 kts | 347° |
| 2026-05-08 12:36 | 32.62582 | 130.06445 | 31663 ft | 442 kts | 342° |
| 2026-05-08 12:37 | 32.65425 | 130.05846 | 31222 ft | 431 kts | 337° |
| 2026-05-08 12:37 | 32.68341 | 130.05078 | 30794 ft | 427 kts | 336° |
| 2026-05-08 12:37 | 32.71233 | 130.04301 | 30367 ft | 424 kts | 336° |
| 2026-05-08 12:37 | 32.74097 | 130.03543 | 29939 ft | 421 kts | 336° |
| 2026-05-08 12:38 | 32.76910 | 130.02818 | 29506 ft | 416 kts | 337° |
| 2026-05-08 12:38 | 32.79765 | 130.02089 | 29044 ft | 413 kts | 336° |
| 2026-05-08 12:38 | 32.82523 | 130.01389 | 28564 ft | 410 kts | 336° |
| 2026-05-08 12:38 | 32.85310 | 130.00686 | 28093 ft | 407 kts | 336° |
| 2026-05-08 12:39 | 32.88063 | 129.99992 | 27663 ft | 403 kts | 336° |
| 2026-05-08 12:39 | 32.90788 | 129.99304 | 27253 ft | 399 kts | 336° |
| 2026-05-08 12:39 | 32.93499 | 129.98619 | 26847 ft | 396 kts | 336° |
| 2026-05-08 12:39 | 32.96180 | 129.97938 | 26442 ft | 392 kts | 336° |
| 2026-05-08 12:40 | 32.98832 | 129.97265 | 26042 ft | 389 kts | 336° |
| 2026-05-08 12:40 | 33.01471 | 129.96593 | 25641 ft | 386 kts | 336° |
| 2026-05-08 12:40 | 33.04102 | 129.95923 | 25256 ft | 384 kts | 336° |
| 2026-05-08 12:40 | 33.06703 | 129.95262 | 24875 ft | 381 kts | 336° |
| 2026-05-08 12:41 | 33.09272 | 129.94608 | 24492 ft | 377 kts | 336° |
| 2026-05-08 12:41 | 33.11821 | 129.93958 | 24118 ft | 374 kts | 336° |
| 2026-05-08 12:41 | 33.14374 | 129.93306 | 23733 ft | 372 kts | 336° |
| 2026-05-08 12:41 | 33.16898 | 129.92662 | 23300 ft | 369 kts | 336° |
| 2026-05-08 12:42 | 33.19404 | 129.92021 | 22877 ft | 366 kts | 336° |
| 2026-05-08 12:42 | 33.21844 | 129.91394 | 22489 ft | 362 kts | 336° |
| 2026-05-08 12:42 | 33.23505 | 129.90966 | 22233 ft | 359 kts | 336° |
| 2026-05-08 12:42 | 33.26417 | 129.90212 | 21757 ft | 356 kts | 337° |
| 2026-05-08 12:43 | 33.28826 | 129.89586 | 21354 ft | 353 kts | 337° |
| 2026-05-08 12:43 | 33.31252 | 129.88956 | 20981 ft | 350 kts | 337° |
| 2026-05-08 12:43 | 33.33626 | 129.88339 | 20617 ft | 347 kts | 338° |
| 2026-05-08 12:43 | 33.35934 | 129.87741 | 20265 ft | 344 kts | 338° |
| 2026-05-08 12:44 | 33.38272 | 129.87133 | 19917 ft | 341 kts | 338° |
| 2026-05-08 12:44 | 33.40581 | 129.86532 | 19569 ft | 338 kts | 338° |
| 2026-05-08 12:44 | 33.42866 | 129.85937 | 19224 ft | 335 kts | 339° |
| 2026-05-08 12:44 | 33.44578 | 129.85493 | 18974 ft | 333 kts | 339° |
| 2026-05-08 12:45 | 33.46899 | 129.84893 | 18619 ft | 330 kts | 340° |
| 2026-05-08 12:45 | 33.49246 | 129.84666 | 18249 ft | 341 kts | 355° |
| 2026-05-08 12:45 | 33.51564 | 129.85016 | 17848 ft | 343 kts | 359° |
| 2026-05-08 12:45 | 33.53962 | 129.85435 | 17447 ft | 340 kts | 359° |
| 2026-05-08 12:46 | 33.56253 | 129.85826 | 17070 ft | 338 kts | 359° |
| 2026-05-08 12:46 | 33.58393 | 129.86174 | 16720 ft | 335 kts | 359° |
| 2026-05-08 12:46 | 33.60699 | 129.86535 | 16328 ft | 332 kts | 359° |
| 2026-05-08 12:46 | 33.62976 | 129.86884 | 15956 ft | 329 kts | 359° |
| 2026-05-08 12:47 | 33.65251 | 129.87230 | 15586 ft | 327 kts | 359° |
| 2026-05-08 12:47 | 33.67503 | 129.87572 | 15207 ft | 325 kts | 359° |
| 2026-05-08 12:47 | 33.69732 | 129.87907 | 14835 ft | 323 kts | 360° |
| 2026-05-08 12:47 | 33.71959 | 129.88242 | 14474 ft | 321 kts | 0° |
| 2026-05-08 12:48 | 33.74166 | 129.88591 | 14114 ft | 320 kts | 3° |
| 2026-05-08 12:48 | 33.75598 | 129.89022 | 13856 ft | 325 kts | 12° |
| 2026-05-08 12:48 | 33.78424 | 129.90350 | 13353 ft | 324 kts | 15° |
| 2026-05-08 12:48 | 33.79800 | 129.91026 | 13125 ft | 321 kts | 15° |
| 2026-05-08 12:49 | 33.81864 | 129.92006 | 12774 ft | 318 kts | 14° |
| 2026-05-08 12:49 | 33.84558 | 129.93395 | 12239 ft | 316 kts | 26° |
| 2026-05-08 12:49 | 33.85685 | 129.94512 | 12102 ft | 317 kts | 38° |
| 2026-05-08 12:49 | 33.87257 | 129.96391 | 12076 ft | 320 kts | 38° |
| 2026-05-08 12:50 | 33.88884 | 129.98264 | 12077 ft | 327 kts | 37° |
| 2026-05-08 12:50 | 33.90548 | 130.00152 | 12072 ft | 329 kts | 37° |
| 2026-05-08 12:50 | 33.92145 | 130.02089 | 12062 ft | 330 kts | 46° |
| 2026-05-08 12:50 | 33.93248 | 130.04558 | 12081 ft | 337 kts | 62° |
| 2026-05-08 12:51 | 33.94146 | 130.07164 | 12080 ft | 341 kts | 61° |
| 2026-05-08 12:51 | 33.96084 | 130.12455 | 12085 ft | 345 kts | 61° |
| 2026-05-08 12:51 | 33.96731 | 130.15240 | 12067 ft | 351 kts | 81° |
| 2026-05-08 12:52 | 33.96758 | 130.18101 | 12060 ft | 344 kts | 93° |
| 2026-05-08 12:52 | 33.94648 | 130.22949 | 12052 ft | 316 kts | 142° |
| 2026-05-08 12:52 | 33.92823 | 130.24335 | 11896 ft | 310 kts | 161° |
| 2026-05-08 12:53 | 33.90781 | 130.25096 | 11644 ft | 303 kts | 176° |
| 2026-05-08 12:53 | 33.88740 | 130.25118 | 11443 ft | 288 kts | 195° |
| 2026-05-08 12:53 | 33.86791 | 130.24714 | 11274 ft | 282 kts | 198° |
| 2026-05-08 12:53 | 33.84866 | 130.24283 | 11104 ft | 281 kts | 198° |
| 2026-05-08 12:54 | 33.82954 | 130.23861 | 10973 ft | 281 kts | 197° |
| 2026-05-08 12:54 | 33.81008 | 130.23438 | 10768 ft | 286 kts | 197° |
| 2026-05-08 12:54 | 33.79041 | 130.23023 | 10583 ft | 287 kts | 196° |
| 2026-05-08 12:54 | 33.77082 | 130.22619 | 10401 ft | 285 kts | 196° |
| 2026-05-08 12:55 | 33.75125 | 130.22219 | 10219 ft | 284 kts | 196° |
| 2026-05-08 12:55 | 33.73182 | 130.21823 | 10046 ft | 283 kts | 196° |
| 2026-05-08 12:55 | 33.71237 | 130.21436 | 9855 ft | 282 kts | 193° |
| 2026-05-08 12:55 | 33.69280 | 130.21654 | 9650 ft | 289 kts | 163° |
| 2026-05-08 12:56 | 33.67534 | 130.22853 | 9503 ft | 292 kts | 146° |
| 2026-05-08 12:56 | 33.65867 | 130.24288 | 9319 ft | 296 kts | 145° |
| 2026-05-08 12:56 | 33.64197 | 130.25736 | 9130 ft | 296 kts | 145° |
| 2026-05-08 12:56 | 33.62532 | 130.27172 | 8929 ft | 294 kts | 146° |
| 2026-05-08 12:57 | 33.60869 | 130.28592 | 8755 ft | 292 kts | 146° |
| 2026-05-08 12:57 | 33.59244 | 130.29972 | 8580 ft | 290 kts | 146° |
| 2026-05-08 12:57 | 33.57600 | 130.31361 | 8416 ft | 287 kts | 146° |
| 2026-05-08 12:57 | 33.55965 | 130.32740 | 8221 ft | 286 kts | 146° |
| 2026-05-08 12:58 | 33.54309 | 130.34045 | 8048 ft | 284 kts | 148° |
| 2026-05-08 12:58 | 33.52621 | 130.35331 | 7866 ft | 283 kts | 148° |
| 2026-05-08 12:58 | 33.50979 | 130.36585 | 7699 ft | 282 kts | 148° |
| 2026-05-08 12:58 | 33.49336 | 130.37847 | 7511 ft | 279 kts | 147° |
| 2026-05-08 12:59 | 33.47715 | 130.39093 | 7458 ft | 277 kts | 148° |
| 2026-05-08 12:59 | 33.46057 | 130.40372 | 7351 ft | 288 kts | 147° |
| 2026-05-08 12:59 | 33.44386 | 130.41654 | 7094 ft | 286 kts | 147° |
| 2026-05-08 12:59 | 33.42713 | 130.42940 | 6866 ft | 281 kts | 147° |
| 2026-05-08 13:00 | 33.41074 | 130.44191 | 6666 ft | 278 kts | 147° |
| 2026-05-08 13:00 | 33.39460 | 130.45435 | 6439 ft | 275 kts | 146° |
| 2026-05-08 13:00 | 33.37860 | 130.46673 | 6272 ft | 273 kts | 147° |
| 2026-05-08 13:00 | 33.36271 | 130.47900 | 6146 ft | 271 kts | 147° |
| 2026-05-08 13:01 | 33.34686 | 130.49120 | 6028 ft | 272 kts | 147° |
| 2026-05-08 13:01 | 33.33088 | 130.50346 | 5781 ft | 274 kts | 147° |
| 2026-05-08 13:01 | 33.31512 | 130.51598 | 5579 ft | 267 kts | 140° |
| 2026-05-08 13:01 | 33.30453 | 130.53284 | 5407 ft | 242 kts | 108° |
| 2026-05-08 13:02 | 33.30194 | 130.55254 | 5291 ft | 240 kts | 84° |
| 2026-05-08 13:02 | 33.30462 | 130.57189 | 5116 ft | 231 kts | 65° |
| 2026-05-08 13:02 | 33.31158 | 130.58868 | 5026 ft | 225 kts | 56° |
| 2026-05-08 13:02 | 33.31994 | 130.60439 | 4841 ft | 220 kts | 43° |
| 2026-05-08 13:03 | 33.33232 | 130.61318 | 4679 ft | 196 kts | 8° |
| 2026-05-08 13:03 | 33.34488 | 130.61305 | 4574 ft | 170 kts | 346° |
| 2026-05-08 13:03 | 33.35535 | 130.60793 | 4499 ft | 160 kts | 330° |
| 2026-05-08 13:03 | 33.36507 | 130.60148 | 4387 ft | 161 kts | 329° |
| 2026-05-08 13:04 | 33.37495 | 130.59482 | 4294 ft | 163 kts | 329° |
| 2026-05-08 13:04 | 33.38482 | 130.58810 | 4191 ft | 164 kts | 329° |
| 2026-05-08 13:04 | 33.39469 | 130.58134 | 4049 ft | 162 kts | 329° |
| 2026-05-08 13:04 | 33.40444 | 130.57470 | 3854 ft | 160 kts | 329° |
| 2026-05-08 13:05 | 33.41394 | 130.56824 | 3637 ft | 159 kts | 329° |
| 2026-05-08 13:05 | 33.42368 | 130.56160 | 3446 ft | 159 kts | 329° |
| 2026-05-08 13:05 | 33.43114 | 130.55650 | 3272 ft | 159 kts | 328° |
| 2026-05-08 13:05 | 33.44073 | 130.55000 | 3055 ft | 158 kts | 330° |
| 2026-05-08 13:06 | 33.45032 | 130.54360 | 2862 ft | 160 kts | 328° |
| 2026-05-08 13:06 | 33.46001 | 130.53684 | 2641 ft | 161 kts | 328° |
| 2026-05-08 13:06 | 33.46960 | 130.53014 | 2384 ft | 158 kts | 327° |
| 2026-05-08 13:06 | 33.47895 | 130.52381 | 2222 ft | 155 kts | 329° |
| 2026-05-08 13:07 | 33.48799 | 130.51771 | 2018 ft | 144 kts | 328° |
| 2026-05-08 13:07 | 33.49636 | 130.51194 | 1813 ft | 133 kts | 326° |
| 2026-05-08 13:07 | 33.50419 | 130.50655 | 1645 ft | 129 kts | 327° |
| 2026-05-08 13:07 | 33.51204 | 130.50120 | 1478 ft | 134 kts | 328° |
| 2026-05-08 13:08 | 33.52040 | 130.49567 | 1309 ft | 138 kts | 329° |
| 2026-05-08 13:08 | 33.52886 | 130.49007 | 1069 ft | 138 kts | 328° |
| 2026-05-08 13:08 | 33.53707 | 130.48425 | 925 ft | 135 kts | 327° |
| 2026-05-08 13:08 | 33.54545 | 130.47850 | 677 ft | 143 kts | 329° |
| 2026-05-08 13:09 | 33.55407 | 130.47287 | 544 ft | 143 kts | 328° |
| 2026-05-08 13:09 | 33.56272 | 130.46706 | 396 ft | 145 kts | 328° |
| 2026-05-08 13:09 | 33.57143 | 130.46108 | 216 ft | 142 kts | 327° |
| 2026-05-08 13:09 | 33.57955 | 130.45511 | 57 ft | 133 kts | 325° |
| 2026-05-08 13:10 | 33.58547 | 130.45098 | 39 ft | 35 kts | 330° |
| 2026-05-08 13:10 | 33.58792 | 130.44906 | 36 ft | 43 kts | 314° |
| 2026-05-08 13:10 | 33.58902 | 130.44702 | 33 ft | 16 kts | 290° |
| 2026-05-08 13:10 | 33.58879 | 130.44596 | 35 ft | 13 kts | 241° |
| 2026-05-08 13:11 | 33.58832 | 130.44531 | 35 ft | 10 kts | 199° |
| 2026-05-08 13:11 | 33.58765 | 130.44554 | 36 ft | 11 kts | 150° |
| 2026-05-08 13:11 | 33.58726 | 130.44581 | 37 ft | 6 kts | 149° |
| 2026-05-08 13:11 | 33.58684 | 130.44610 | 37 ft | 7 kts | 150° |
| 2026-05-08 13:12 | 33.58633 | 130.44644 | 37 ft | 9 kts | 150° |
| 2026-05-08 13:12 | 33.58573 | 130.44685 | 37 ft | 10 kts | 150° |
| 2026-05-08 13:12 | 33.58516 | 130.44722 | 37 ft | 9 kts | 161° |
| 2026-05-08 13:12 | 33.58470 | 130.44677 | 37 ft | 10 kts | 239° |
| 2026-05-08 13:13 | 33.58444 | 130.44624 | 36 ft | 4 kts | 240° |
| 2026-05-08 13:13 | 33.58441 | 130.44618 | 36 ft | 1 kts | 240° |
| 2026-05-08 13:13 | 33.58438 | 130.44610 | 36 ft | 1 kts | 240° |
| 2026-05-08 13:13 | 33.58436 | 130.44606 | 36 ft | 0 kts | 240° |